createdAt,value
2018-11-21T00:02:49.051Z,2.70
2018-11-21T00:07:52.403Z,2.70
2018-11-21T00:12:56.998Z,2.70
2018-11-21T00:18:00.382Z,2.70
2018-11-21T00:23:03.789Z,2.60
2018-11-21T00:28:15.310Z,2.60
2018-11-21T00:33:18.712Z,2.60
2018-11-21T00:38:22.109Z,2.70
2018-11-21T00:43:25.522Z,2.70
2018-11-21T00:48:28.979Z,2.70
2018-11-21T00:53:32.375Z,2.70
2018-11-21T00:58:38.300Z,2.60
2018-11-21T01:03:41.848Z,2.50
2018-11-21T01:08:45.228Z,2.40
2018-11-21T01:13:48.607Z,2.30
2018-11-21T01:18:52.061Z,2.10
2018-11-21T01:23:55.443Z,2.00
2018-11-21T01:28:58.807Z,2.00
2018-11-21T01:34:02.541Z,1.90
2018-11-21T01:39:09.020Z,1.90
2018-11-21T01:44:12.438Z,1.70
2018-11-21T01:49:18.563Z,1.50
2018-11-21T01:54:22.308Z,1.50
2018-11-21T01:59:25.737Z,1.40
2018-11-21T02:04:29.115Z,1.30
2018-11-21T02:09:32.566Z,1.00
2018-11-21T02:14:36.209Z,1.10
2018-11-21T02:19:39.689Z,0.90
2018-11-21T02:24:43.076Z,0.90
2018-11-21T02:29:46.559Z,0.80
2018-11-21T02:34:49.887Z,0.50
2018-11-21T02:39:53.209Z,0.40
2018-11-21T02:44:56.594Z,0.30
2018-11-21T02:50:00.051Z,0.50
2018-11-21T02:55:03.533Z,0.40
2018-11-21T03:00:21.112Z,0.30
2018-11-21T03:05:24.597Z,0.30
2018-11-21T03:10:28.268Z,0.40
2018-11-21T03:15:31.664Z,0.40
2018-11-21T03:20:35.073Z,0.40
2018-11-21T03:25:38.490Z,0.50
2018-11-21T03:30:41.936Z,0.50
2018-11-21T03:35:45.333Z,0.50
2018-11-21T03:40:48.761Z,0.40
2018-11-21T03:45:52.196Z,0.30
2018-11-21T03:50:55.647Z,0.30
2018-11-21T03:55:59.181Z,0.10
2018-11-21T04:01:02.609Z,0.10
2018-11-21T04:06:06.158Z,0.10
2018-11-21T04:11:09.669Z,0.00
2018-11-21T04:16:13.172Z,0.20
2018-11-21T04:21:16.591Z,0.40
2018-11-21T04:26:20.037Z,0.60
2018-11-21T04:31:23.448Z,0.60
2018-11-21T04:36:26.888Z,0.70
2018-11-21T04:41:30.293Z,0.70
2018-11-21T04:46:33.759Z,0.70
2018-11-21T04:51:37.231Z,0.70
2018-11-21T04:56:40.696Z,0.80
2018-11-21T05:01:58.042Z,0.80
2018-11-21T05:07:01.487Z,0.90
2018-11-21T05:12:04.988Z,1.00
2018-11-21T05:17:08.455Z,1.20
2018-11-21T05:22:11.872Z,1.30
2018-11-21T05:27:15.303Z,1.50
2018-11-21T05:32:38.788Z,1.60
2018-11-21T06:05:09.686Z,2.00
2018-11-21T06:49:13.183Z,2.60
2018-11-21T06:54:39.127Z,2.80
2018-11-21T07:00:05.790Z,2.90
2018-11-21T07:05:44.775Z,2.90
2018-11-21T07:11:08.280Z,2.90
2018-11-21T07:27:48.740Z,3.10
2018-11-21T07:33:14.196Z,3.20
2018-11-21T07:38:39.016Z,3.20
2018-11-21T07:44:11.659Z,3.10
2018-11-21T07:49:38.652Z,3.20
2018-11-21T07:55:02.193Z,3.40
2018-11-21T08:11:38.535Z,3.50
2018-11-21T08:34:15.740Z,4.00
2018-11-21T08:45:22.340Z,3.80
2018-11-21T08:50:45.108Z,3.80
2018-11-21T08:56:45.756Z,4.00
2018-11-21T09:07:28.015Z,4.20
2018-11-21T09:18:28.147Z,4.20
2018-11-21T09:23:51.414Z,4.00
2018-11-21T09:34:45.953Z,4.10
2018-11-21T09:40:11.024Z,4.20
2018-11-21T09:45:33.829Z,4.40
2018-11-21T09:50:58.276Z,4.50
2018-11-21T09:56:20.978Z,4.70
2018-11-21T10:02:05.639Z,4.70
2018-11-21T10:13:22.837Z,4.80
2018-11-21T10:24:24.096Z,5.10
2018-11-21T10:29:27.419Z,5.00
2018-11-21T10:40:21.752Z,5.10
2018-11-21T10:45:53.602Z,5.30
2018-11-21T10:56:57.408Z,5.30
2018-11-21T11:13:43.863Z,5.90
2018-11-21T11:19:25.557Z,6.10
2018-11-21T11:25:07.390Z,6.20
2018-11-21T11:30:49.604Z,6.10
2018-11-21T11:47:48.955Z,6.40
2018-11-21T12:05:05.516Z,6.30
2018-11-21T12:10:31.656Z,6.10
2018-11-21T12:16:34.233Z,6.20
2018-11-21T12:22:16.989Z,6.40
2018-11-21T12:27:58.807Z,6.40
2018-11-21T12:33:45.045Z,6.60
2018-11-21T12:56:58.910Z,6.20
2018-11-21T13:02:42.414Z,5.80
2018-11-21T13:14:34.639Z,6.00
2018-11-21T13:20:16.518Z,6.20
2018-11-21T13:37:08.780Z,5.90
2018-11-21T13:48:59.847Z,5.90
2018-11-21T14:00:23.467Z,5.70
2018-11-21T14:21:56.267Z,5.80
2018-11-21T14:27:33.120Z,5.80
2018-11-21T14:33:07.826Z,6.00
2018-11-21T14:44:08.402Z,6.00
2018-11-21T15:06:04.215Z,5.80
2018-11-21T15:11:11.143Z,5.60
2018-11-21T15:16:34.187Z,5.50
2018-11-21T15:22:05.803Z,5.60
2018-11-21T15:38:59.288Z,5.60
2018-11-21T15:55:45.099Z,5.60
2018-11-21T16:00:47.658Z,5.70
2018-11-21T16:06:12.207Z,5.70
2018-11-21T16:11:58.487Z,5.70
2018-11-21T16:28:52.826Z,5.90
2018-11-21T16:51:07.423Z,6.10
2018-11-21T17:02:22.018Z,6.20
2018-11-21T17:07:53.142Z,6.20
2018-11-21T17:13:16.105Z,6.10
2018-11-21T17:18:39.119Z,6.10
2018-11-21T17:24:06.727Z,6.10
2018-11-21T17:29:53.891Z,6.10
2018-11-21T17:40:49.648Z,6.10
2018-11-21T18:09:17.659Z,6.00
2018-11-21T18:20:19.147Z,6.10
2018-11-21T18:25:44.614Z,6.10
2018-11-21T19:09:37.617Z,6.00
2018-11-21T19:20:29.503Z,5.90
2018-11-21T19:25:52.349Z,5.80
2018-11-21T19:36:43.957Z,5.90
2018-11-21T19:41:47.386Z,6.00
2018-11-21T19:47:12.918Z,6.00
2018-11-21T19:57:53.444Z,6.00
2018-11-21T20:25:39.133Z,6.00
2018-11-21T20:36:30.797Z,5.80
2018-11-21T20:58:40.619Z,5.80
2018-11-21T21:04:05.645Z,5.80
2018-11-21T21:09:11.280Z,5.80
2018-11-21T21:14:14.654Z,5.90
2018-11-21T22:29:38.411Z,5.90
2018-11-21T22:35:02.240Z,5.80
2018-11-21T22:40:25.518Z,5.80
2018-11-21T22:45:48.604Z,5.80
2018-11-21T22:51:11.330Z,5.70
2018-11-21T22:56:16.356Z,5.80
2018-11-21T23:01:39.144Z,5.70
2018-11-21T23:18:01.331Z,5.80
2018-11-21T23:23:24.613Z,5.80
2018-11-21T23:28:47.655Z,5.80
2018-11-21T23:45:19.513Z,5.80
2018-11-21T23:56:22.807Z,5.70
